MENDENHALL VALLEY AK US NWS current weather conditions

sailwx.info

Wind from 020 at 1 knots gusting 5

Air temperature -1.0° C
Dewpoint -4.4° C

Last reported at 2020-Apr-07 16:02 UTC.
Time now 2020-Apr-07 17:00 UTC

Location: N 58°22' W 134°36'.
View on Google Maps.

See reports from other nearby stations

  
Tides and Currents Weather Stations Pressure Air Temp Water Temp Dewpoint Dewpoint Depression Visibility Wind Speed Wind Dir Waves Ship Positions
date/time (UTC)wind fromknots sea level pressurealtimeterstation pressurevisibilityair tempwater tempwave heightnotes
2020-Apr-07 16:02 020 1 gusting 5 -1.0
2020-Apr-07 15:52 070 2 gusting 6 -1.1
2020-Apr-07 15:42 060 2 gusting 6 -1.2
2020-Apr-07 15:32 050 5 gusting 8 -1.3
2020-Apr-07 15:22 050 4 gusting 7 -1.2
2020-Apr-07 15:12 050 1 gusting 5 -1.1
2020-Apr-07 15:02 070 2 gusting 6 -1.1
2020-Apr-07 14:52 090 1 gusting 6 -1.0
2020-Apr-07 14:42 100 1 gusting 5 -1.0
2020-Apr-07 14:32 140 1 gusting 4 -1.0
2020-Apr-07 14:22 080 1 gusting 4 -1.0
2020-Apr-07 14:12 110 1 gusting 4 -1.1
2020-Apr-07 14:02 060 1 gusting 5 -1.2
2020-Apr-07 13:52 130 1 gusting 4 -1.1
2020-Apr-07 13:42 090 2 gusting 5 -1.2
2020-Apr-07 13:32 200 1 gusting 6 -1.0
2020-Apr-07 13:23 120 1 gusting 4 -1.1
2020-Apr-07 13:12 100 2 gusting 5 -1.1
2020-Apr-07 13:02 090 2 gusting 7 -1.2
2020-Apr-07 12:52 100 1 gusting 5 -1.2
2020-Apr-07 12:42 300 1 gusting 5 -1.2
2020-Apr-07 12:32 100 2 gusting 6 -1.3
2020-Apr-07 12:22 010 2 gusting 6 -1.2
2020-Apr-07 12:12 260 2 gusting 6 -0.6
2020-Apr-07 12:02 200 5 gusting 8 -0.1
2020-Apr-07 11:52 200 6 gusting 11 -0.2
2020-Apr-07 11:42 190 8 gusting 15 -0.0
2020-Apr-07 11:32 210 9 gusting 17 0.3
2020-Apr-07 11:22 200 12 gusting 20 0.6
2020-Apr-07 11:12 190 8 gusting 15 0.8
2020-Apr-07 11:02 190 6 gusting 13 0.9
2020-Apr-07 10:52 190 7 gusting 12 0.8
2020-Apr-07 10:42 190 7 gusting 12 0.8
2020-Apr-07 10:32 180 6 gusting 11 0.9
2020-Apr-07 10:22 190 6 gusting 11 0.8
2020-Apr-07 10:12 190 7 gusting 13 0.8
2020-Apr-07 10:02 190 6 gusting 12 0.8
2020-Apr-07 09:52 190 7 gusting 13 0.7
2020-Apr-07 09:42 190 8 gusting 13 0.6
2020-Apr-07 09:32 190 5 gusting 9 0.5
2020-Apr-07 09:22 190 4 gusting 7 0.6
2020-Apr-07 09:12 190 4 gusting 12 0.7
2020-Apr-07 09:02 190 5 gusting 9 0.6
2020-Apr-07 08:52 190 6 gusting 14 0.2
2020-Apr-07 08:42 190 1 gusting 6 -0.1
2020-Apr-07 08:33 140 1 gusting 6 -0.2
2020-Apr-07 08:22 080 2 gusting 9 -0.4
2020-Apr-07 08:12 120 2 gusting 5 -0.2
2020-Apr-07 08:02 150 1 gusting 4 0.3
2020-Apr-07 07:52 180 4 gusting 7 0.8
2020-Apr-07 07:42 180 6 gusting 13 0.7
2020-Apr-07 07:32 190 4 gusting 7 0.8
2020-Apr-07 07:22 180 5 gusting 9 0.8
2020-Apr-07 07:12 190 6 gusting 9 0.7
2020-Apr-07 07:02 190 6 gusting 9 0.7
2020-Apr-07 06:52 190 7 gusting 13 0.7
2020-Apr-07 06:42 200 9 gusting 21 0.7
2020-Apr-07 06:32 190 8 gusting 13 0.8
2020-Apr-07 06:22 190 8 gusting 17 0.9
2020-Apr-07 06:12 200 6 gusting 12 1.0
2020-Apr-07 06:02 200 6 gusting 14 1.0
2020-Apr-07 05:52 190 7 gusting 19 1.0
2020-Apr-07 05:42 200 7 gusting 13 0.9
2020-Apr-07 05:32 190 7 gusting 13 0.9
2020-Apr-07 05:22 190 8 gusting 17 0.9
2020-Apr-07 05:12 210 6 gusting 14 0.8
2020-Apr-07 05:02 220 7 gusting 18 0.8
2020-Apr-07 04:52 200 6 gusting 13 0.7
2020-Apr-07 04:42 220 6 gusting 13 0.8
2020-Apr-07 04:32 200 12 gusting 20 0.8
2020-Apr-07 04:22 200 9 gusting 17 0.7
2020-Apr-07 04:12 200 12 gusting 18 0.6
2020-Apr-07 04:02 200 11 gusting 24 0.7
2020-Apr-07 03:52 200 11 gusting 18 0.8
2020-Apr-07 03:42 220 12 gusting 20 0.9
2020-Apr-07 03:32 200 13 gusting 24 1.1
2020-Apr-07 03:22 200 14 gusting 28 1.2
2020-Apr-07 03:12 200 12 gusting 18 1.5
2020-Apr-07 03:02 200 12 gusting 21 1.5
2020-Apr-07 02:52 180 11 gusting 20 1.5
2020-Apr-07 02:42 190 11 gusting 18 2.0
2020-Apr-07 02:32 200 12 gusting 19 2.2
2020-Apr-07 02:22 200 12 gusting 21 2.4
2020-Apr-07 02:12 200 12 gusting 21 2.6
2020-Apr-07 02:03 200 15 gusting 26 2.8
2020-Apr-07 01:52 190 13 gusting 21 2.8
2020-Apr-07 01:42 200 17 gusting 25 2.7
2020-Apr-07 01:33 200 14 gusting 24 2.9
2020-Apr-07 01:22 210 13 gusting 25 3.4
2020-Apr-07 01:12 210 11 gusting 20 3.1
2020-Apr-07 01:02 210 13 gusting 27 3.2
2020-Apr-07 00:52 210 13 gusting 25 3.2
2020-Apr-07 00:42 210 13 gusting 28 3.2
2020-Apr-07 00:32 200 12 gusting 22 3.3
2020-Apr-07 00:22 210 13 gusting 25 3.7
2020-Apr-07 00:12 200 7 gusting 20 4.3
2020-Apr-06 23:52 220 9 gusting 24 2.3
2020-Apr-06 23:42 200 17 gusting 32 2.4
2020-Apr-06 23:32 200 18 gusting 28 2.8
2020-Apr-06 23:22 200 15 gusting 27 3.2
2020-Apr-06 23:12 190 15 gusting 26 3.4
2020-Apr-06 23:02 200 17 gusting 27 2.8
2020-Apr-06 22:52 210 13 gusting 26 2.6
2020-Apr-06 22:42 210 13 gusting 27 2.9
2020-Apr-06 22:32 200 12 gusting 22 3.5
2020-Apr-06 22:23 220 13 gusting 26 3.8
2020-Apr-06 22:12 210 9 gusting 18 3.7
2020-Apr-06 22:02 230 12 gusting 25 3.5
2020-Apr-06 21:52 230 12 gusting 22 3.2
2020-Apr-06 21:42 220 13 gusting 25 2.6
2020-Apr-06 21:32 230 14 gusting 27 3.2
2020-Apr-06 21:22 210 17 gusting 32 4.2
2020-Apr-06 21:12 210 17 gusting 35 5.3
2020-Apr-06 21:02 210 15 gusting 31 5.7
2020-Apr-06 20:52 210 6 gusting 19 4.6
2020-Apr-06 20:42 200 2 gusting 6 3.3
2020-Apr-06 20:32 150 4 gusting 6 2.6
2020-Apr-06 20:22 040 4 gusting 13 1.9
2020-Apr-06 20:12 040 1 gusting 4 1.8
2020-Apr-06 20:02 350 1 gusting 6 1.5
2020-Apr-06 19:52 020 2 gusting 6 1.6
2020-Apr-06 19:42 080 1 gusting 5 1.4
2020-Apr-06 19:32 020 2 gusting 7 1.3
2020-Apr-06 19:23 010 2 gusting 8 1.4
2020-Apr-06 19:12 070 6 gusting 13 1.5
2020-Apr-06 19:02 040 4 gusting 11 2.0
2020-Apr-06 18:52 060 2 gusting 6 2.8
2020-Apr-06 18:42 110 4 gusting 7 3.7
2020-Apr-06 18:32 190 6 gusting 12 4.1
2020-Apr-06 18:22 150 6 gusting 14 4.1
2020-Apr-06 18:12 170 6 gusting 12 4.0
2020-Apr-06 18:02 170 7 gusting 13 4.0
2020-Apr-06 17:52 200 8 gusting 14 4.1
2020-Apr-06 17:42 200 11 gusting 20 3.9
2020-Apr-06 17:32 200 9 gusting 17 3.9
2020-Apr-06 17:22 190 9 gusting 15 3.7
2020-Apr-06 17:13 200 12 gusting 22 3.5
2020-Apr-06 17:02 200 13 gusting 24 3.4
2020-Apr-06 16:52 210 9 gusting 20 3.4
2020-Apr-06 16:42 200 12 gusting 22 3.3
2020-Apr-06 16:32 210 11 gusting 27 3.4
2020-Apr-06 16:22 220 7 gusting 18 3.4
2020-Apr-06 16:12 190 6 gusting 14 3.3
2020-Apr-06 16:02 200 9 gusting 18 3.1
2020-Apr-06 15:52 190 13 gusting 19 3.0
2020-Apr-06 15:42 190 9 gusting 15 3.0
2020-Apr-06 15:32 190 11 gusting 20 2.9
2020-Apr-06 15:22 190 7 gusting 13 2.9
2020-Apr-06 15:12 190 7 gusting 14 2.9
2020-Apr-06 15:02 190 6 gusting 8 2.8
2020-Apr-06 14:52 190 6 gusting 9 2.5
2020-Apr-06 14:42 190 4 gusting 11 2.1
2020-Apr-06 14:32 170 5 gusting 6 1.9
2020-Apr-06 14:22 190 6 gusting 9 1.6
2020-Apr-06 14:12 200 8 gusting 15 1.4
2020-Apr-06 14:02 180 5 gusting 9 1.4
2020-Apr-06 13:52 150 1 gusting 5 1.2
2020-Apr-06 13:42 220 5 gusting 9 1.4
2020-Apr-06 13:32 260 8 gusting 17 1.6
2020-Apr-06 13:22 260 7 gusting 19 2.5
2020-Apr-06 13:12 210 11 gusting 20 3.2
2020-Apr-06 13:02 180 13 gusting 22 3.0
2020-Apr-06 12:53 180 5 gusting 8 2.3
2020-Apr-06 12:42 220 1 gusting 9 1.8
2020-Apr-06 12:32 090 4 gusting 9 1.4
2020-Apr-06 12:22 080 1 gusting 6 1.2
2020-Apr-06 12:12 040 4 gusting 8 1.1
2020-Apr-06 12:02 060 4 gusting 11 1.1
2020-Apr-06 11:52 060 5 gusting 8 1.1
2020-Apr-06 11:42 090 2 gusting 8 1.3
2020-Apr-06 11:32 050 2 gusting 7 1.5
2020-Apr-06 11:22 160 1 gusting 4 2.6
2020-Apr-06 11:12 150 6 gusting 11 2.8
2020-Apr-06 11:02 110 7 gusting 13 2.7
2020-Apr-06 10:52 110 7 gusting 13 2.8
2020-Apr-06 10:42 110 6 gusting 9 2.6
2020-Apr-06 10:32 110 7 gusting 12 2.6
2020-Apr-06 10:23 120 6 gusting 9 2.4
2020-Apr-06 10:13 100 2 gusting 7 2.0
2020-Apr-06 10:02 160 2 gusting 6 2.0
2020-Apr-06 09:52 200 2 gusting 6 1.8
2020-Apr-06 09:42 100 2 gusting 6 1.5
2020-Apr-06 09:32 090 6 gusting 11 1.4
2020-Apr-06 09:22 070 4 gusting 8 1.1
2020-Apr-06 09:12 070 4 gusting 8 1.0
2020-Apr-06 09:02 070 5 gusting 8 1.1
2020-Apr-06 08:52 090 4 gusting 6 1.2
2020-Apr-06 08:43 090 2 gusting 6 1.2
2020-Apr-06 08:32 090 1 gusting 6 1.4
2020-Apr-06 08:22 080 2 gusting 7 1.3
2020-Apr-06 08:12 080 4 gusting 7 1.4
2020-Apr-06 08:02 080 4 gusting 9 1.4
2020-Apr-06 07:52 070 4 gusting 7 1.4
2020-Apr-06 07:42 090 1 gusting 4 1.7
2020-Apr-06 07:32 150 1 gusting 4 1.7
2020-Apr-06 07:23 120 2 gusting 6 1.8
2020-Apr-06 07:13 100 4 gusting 6 1.7
2020-Apr-06 07:02 080 5 gusting 7 1.6
2020-Apr-06 06:52 060 5 gusting 9 1.7
2020-Apr-06 06:42 070 6 gusting 8 1.9
2020-Apr-06 06:32 070 4 gusting 7 2.1
2020-Apr-06 06:22 100 2 gusting 5 2.1
2020-Apr-06 06:12 200 1 gusting 2 2.3
2020-Apr-06 06:02 090 2 gusting 6 2.3
2020-Apr-06 05:52 090 4 gusting 6 2.5
2020-Apr-06 05:42 100 2 gusting 5 2.9
2020-Apr-06 05:32 150 4 gusting 6 3.1
2020-Apr-06 05:22 110 2 gusting 6 3.0
2020-Apr-06 05:12 090 4 gusting 6 3.1
2020-Apr-06 05:02 100 4 gusting 7 3.2
2020-Apr-06 04:52 120 4 gusting 6 3.4
2020-Apr-06 04:42 160 6 gusting 9 3.5
2020-Apr-06 04:32 140 7 gusting 12 3.5
2020-Apr-06 04:22 130 6 gusting 11 3.5
2020-Apr-06 04:12 130 6 gusting 8 3.5
2020-Apr-06 04:02 120 6 gusting 11 3.5
2020-Apr-06 03:52 120 6 gusting 9 3.6
2020-Apr-06 03:42 120 6 gusting 11 3.7
2020-Apr-06 03:32 120 6 gusting 11 3.8
2020-Apr-06 03:22 120 5 gusting 7 3.9
2020-Apr-06 03:12 110 6 gusting 8 4.0
2020-Apr-06 03:02 110 5 gusting 7 4.3
2020-Apr-06 02:52 110 5 gusting 8 4.5
2020-Apr-06 02:42 130 4 gusting 6 4.8
2020-Apr-06 02:32 160 2 gusting 5 5.1
2020-Apr-06 02:22 180 4 gusting 6 5.2
2020-Apr-06 02:12 190 6 gusting 7 5.2
2020-Apr-06 02:02 190 6 gusting 9 5.5
2020-Apr-06 01:52 180 4 gusting 7 5.8
2020-Apr-06 01:42 160 4 gusting 6 5.5
2020-Apr-06 01:32 170 4 gusting 6 5.6
2020-Apr-06 01:23 210 2 gusting 5 5.3
2020-Apr-06 01:12 210 2 gusting 5 5.6
2020-Apr-06 01:02 200 4 gusting 5 5.7
2020-Apr-06 00:52 190 4 gusting 6 5.7
2020-Apr-06 00:42 180 5 gusting 6 5.5
2020-Apr-06 00:32 190 5 gusting 6 5.2
2020-Apr-06 00:22 190 5 gusting 6 5.0
2020-Apr-06 00:12 190 6 gusting 8 4.7
2020-Apr-05 23:52 220 6 gusting 11 4.9
2020-Apr-05 23:42 200 6 gusting 9 5.5
2020-Apr-05 23:32 210 6 gusting 11 6.1
2020-Apr-05 23:22 200 6 gusting 8 7.0
2020-Apr-05 23:12 190 5 gusting 8 7.5
2020-Apr-05 23:02 180 6 gusting 11 8.3
2020-Apr-05 22:52 180 6 gusting 12 8.6
2020-Apr-05 22:42 200 6 gusting 11 8.6
2020-Apr-05 22:32 150 4 gusting 11 8.2
2020-Apr-05 22:22 180 6 gusting 12 8.2
2020-Apr-05 22:13 190 6 gusting 11 7.5
2020-Apr-05 22:02 200 5 gusting 9 7.1
2020-Apr-05 21:52 190 6 gusting 12 6.6
2020-Apr-05 21:42 210 6 gusting 11 6.7
2020-Apr-05 21:32 200 6 gusting 9 7.3
2020-Apr-05 21:22 200 6 gusting 12 7.2
2020-Apr-05 21:12 200 4 gusting 7 6.9
2020-Apr-05 21:02 200 6 gusting 12 7.2
2020-Apr-05 20:52 190 6 gusting 11 7.3
2020-Apr-05 20:42 170 6 gusting 11 6.9
2020-Apr-05 20:32 190 5 gusting 8 6.4
2020-Apr-05 20:22 190 6 gusting 8 6.7
2020-Apr-05 20:12 160 6 gusting 12 6.4
2020-Apr-05 20:02 160 6 gusting 11 5.9
2020-Apr-05 19:52 160 7 gusting 12 5.9
2020-Apr-05 19:42 150 6 gusting 9 6.1
2020-Apr-05 19:32 170 5 gusting 8 6.3
2020-Apr-05 19:22 180 5 gusting 8 5.7
2020-Apr-05 19:12 190 6 gusting 13 4.9
2020-Apr-05 19:02 200 6 gusting 13 4.8
2020-Apr-05 18:52 170 6 gusting 9 4.5
2020-Apr-05 18:42 160 6 gusting 9 4.5
2020-Apr-05 18:32 160 6 gusting 9 4.7
2020-Apr-05 18:22 160 6 gusting 8 4.7
2020-Apr-05 18:12 160 6 gusting 8 4.0
2020-Apr-05 18:02 150 6 gusting 8 3.5
2020-Apr-05 17:52 150 5 gusting 7 3.3
2020-Apr-05 17:42 140 4 gusting 5 2.5
2020-Apr-05 17:32 150 4 gusting 6 2.7
2020-Apr-05 17:22 160 5 gusting 6 1.6
2020-Apr-05 17:12 120 2 gusting 5 0.1
2020-Apr-05 17:02 110 4 gusting 6 -0.3